Station: Longreach  

  Atmospheric Gas Attenuation - ITU Rec 676-11   ----------------- dB/100km -----------------
Date Time Temp RH % AH g/m3 Dew Point Wind Direction Speed kph Gust kph Barometer mB Rainfall Since 9am 24GHz 47GHz 76GHz 122GHz 134GHz 241GHz
07/05 16:10 25 37 8.52 9.3 32 33 1017 0 18.9 22.9 34.5 90.5 84.8 292.1
07/05 16:00 25 37 8.52 9.3 24 32 1016.9 0 18.9 22.9 34.5 90.5 84.8 292.0
07/05 15:50 25.2 37 8.61 9.5 22 30 1017 0 19.1 23.0 34.7 91.1 85.6 294.9
07/05 15:40 25.1 37 8.57 9.4 26 32 1017.1 0 19.0 23.0 34.7 90.8 85.2 293.7
07/05 15:30 25.7 35 8.38 9.1 22 32 1016.8 0 18.6 22.5 33.7 88.4 82.5 284.0
07/05 15:20 25.9 35 8.47 9.3 24 30 1016.9 0 18.7 22.6 34.0 89.0 83.3 286.9
07/05 15:10 25.7 36 8.62 9.5 30 35 1016.9 0 19.1 22.9 34.6 90.6 85.2 293.5
07/05 15:00 26 35 8.52 9.4 26 41 1016.8 0 18.8 22.6 34.1 89.4 83.7 288.5
07/05 14:50 26.2 35 8.62 9.5 30 33 1017 0 19.0 22.7 34.4 90.1 84.6 291.8
07/05 14:40 26.3 36 8.91 10 26 30 1017.1 0 19.6 23.1 35.3 92.6 87.8 302.9
07/05 14:30 26.6 35 8.81 9.9 26 35 1017.2 0 19.4 22.9 34.8 91.4 86.4 297.8
07/05 14:20 26.5 35 8.76 9.8 28 30 1017.2 0 19.3 22.9 34.7 91.0 85.9 296.2
07/05 14:10 25.8 35 8.43 9.2 28 32 1017.3 0 18.7 22.6 33.9 88.8 82.9 285.8
07/05 14:00 25.7 36 8.62 9.5 26 33 1017.3 0 19.1 22.9 34.6 90.6 85.2 293.6
07/05 13:50 25.3 36 8.43 9.2 30 35 1017.4 0 18.7 22.7 34.1 89.3 83.5 287.5
07/05 13:40 25.4 35 8.24 8.8 20 26 1017.4 0 18.3 22.4 33.4 87.5 81.2 279.7
07/05 13:30 25.2 35 8.15 8.7 28 39 1017.6 0 18.1 22.4 33.2 86.9 80.4 276.9
07/05 13:20 25.8 35 8.43 9.2 26 30 1017.7 0 18.7 22.6 33.9 88.8 83.0 285.9
07/05 13:10 25.1 35 8.1 8.6 26 30 1017.8 0 18.0 22.3 33.1 86.6 80.0 275.3
07/05 13:00 24.8 35 7.97 8.3 24 37 1018 0 17.8 22.2 32.8 85.7 78.8 271.3
07/05 12:50 25.6 34 8.09 8.6 24 28 1018.1 0 18.0 22.2 32.9 86.0 79.4 273.3
07/05 12:40 25.1 35 8.1 8.6 26 30 1018.2 0 18.0 22.3 33.1 86.6 80.0 275.4
07/05 12:30 24.5 36 8.06 8.5 32 39 1018.3 0 18.0 22.4 33.2 86.9 80.2 275.9
07/05 12:20 23.4 38 7.99 8.3 26 37 1018.4 0 17.9 22.6 33.4 87.4 80.5 276.8
07/05 12:10 23 38 7.81 7.9 32 35 1018.6 0 17.5 22.5 33.0 86.2 78.8 271.0
07/05 12:00 23.7 37 7.91 8.2 32 41 1018.6 0 17.7 22.4 33.0 86.4 79.3 272.7
07/05 11:50 24.1 36 7.88 8.1 33 39 1018.6 0 17.6 22.3 32.8 85.7 78.6 270.2
07/05 11:40 23.6 37 7.87 8.1 32 35 1018.8 0 17.6 22.4 32.9 86.2 78.9 271.5
07/05 11:30 23.6 38 8.08 8.5 30 37 1019 0 18.0 22.7 33.7 88.1 81.3 279.9
07/05 11:20 22.7 40 8.08 8.4 33 39 1019.1 0 18.1 22.9 34.0 89.1 82.3 283.0
07/05 11:10 23 39 8.02 8.3 32 35 1019.2 0 17.9 22.8 33.7 88.2 81.3 279.6
07/05 11:00 22.2 41 8.05 8.3 33 41 1019.4 0 18.0 23.0 34.1 89.4 82.5 283.6
07/05 10:50 21.7 42 8.01 8.2 32 33 1019.6 0 18.0 23.1 34.2 89.6 82.5 283.8
07/05 10:40 20.8 46 8.33 8.8 26 32 1019.6 0 18.7 23.8 35.8 93.7 87.2 300.2
07/05 10:30 20.3 46 8.09 8.3 28 33 1019.7 0 18.2 23.6 35.1 91.9 84.9 292.1
07/05 10:20 19.4 50 8.34 8.7 26 33 1019.7 0 18.8 24.2 36.4 95.4 88.9 306.0
07/05 10:10 19.4 51 8.51 9 28 30 1019.8 0 19.1 24.4 37.1 97.1 91.0 313.3
07/05 10:00 19.3 54 8.96 9.8 26 33 1020 0 20.1 25.1 38.8 101.8 96.7 333.2
07/05 09:50 18.8 58 9.34 10.4 28 30 1019.8 0 20.9 25.9 40.5 106.3 102.1 352.0
07/05 09:40 18.3 63 9.85 11.1 20 26 1019.8 0 22.0 26.8 42.7 112.3 109.3 377.3
07/05 09:30 17.7 67 10.11 11.5 24 35 1019.6 0 22.6 27.4 44.1 115.9 113.6 392.1
07/05 09:20 16.5 73 10.25 11.6 28 33 1019.3 0 23.0 28.0 45.3 119.2 117.2 404.7
07/05 09:10 16.2 73 10.07 11.4 22 28 1019.4 0 22.6 27.8 44.8 117.7 115.3 397.8
07/05 09:00 16.6 67 9.46 10.5 26 33 1019.3 0 21.3 26.7 42.1 110.5 106.6 367.3
07/05 08:50 17.6 58 8.7 9.2 24 28 1019.1 0 19.6 25.2 38.6 101.2 95.4 328.6
07/05 08:40 17.6 58 8.7 9.2 26 30 1018.9 0 19.6 25.2 38.6 101.2 95.4 328.5
07/05 08:30 17.9 56 8.55 9 28 33 1019 0 19.3 24.9 37.9 99.3 93.2 320.7
07/05 08:20 18.2 54 8.39 8.7 26 30 1018.8 0 18.9 24.5 37.1 97.3 90.8 312.5
07/05 08:10 18.4 52 8.18 8.4 26 28 1018.6 0 18.5 24.2 36.2 94.9 88.0 302.6
07/05 08:00 18.8 50 8.05 8.2 30 37 1018.4 0 18.2 23.8 35.6 93.1 86.0 295.5
07/05 07:50 18.8 50 8.05 8.2 24 28 1018.5 0 18.2 23.9 35.6 93.1 86.0 295.5
07/05 07:40 18.8 50 8.05 8.2 28 30 1018.3 0 18.2 23.8 35.6 93.1 86.0 295.5
07/05 07:30 18.8 51 8.21 8.5 24 30 1018.3 0 18.5 24.1 36.1 94.7 87.9 302.3
07/05 07:20 18.6 52 8.28 8.6 28 33 1018.2 0 18.7 24.2 36.5 95.6 89.0 306.1
07/05 07:10 18.3 53 8.29 8.6 22 28 1018.1 0 18.7 24.3 36.7 96.1 89.4 307.6
07/05 07:00 18.2 54 8.39 8.7 20 28 1018 0 18.9 24.5 37.1 97.2 90.8 312.3
07/05 06:50 18.2 55 8.55 9 19 24 1018.1 0 19.3 24.8 37.7 98.8 92.8 319.3
07/05 06:40 18.2 57 8.86 9.5 22 28 1017.9 0 19.9 25.2 38.9 101.9 96.6 332.8
07/05 06:30 18.3 58 9.07 9.9 20 28 1017.7 0 20.4 25.5 39.6 103.9 99.1 341.6
07/05 06:20 18.3 59 9.22 10.2 20 22 1017.6 0 20.7 25.7 40.2 105.5 101.0 348.3
07/05 06:10 18.3 58 9.07 9.9 20 26 1017.4 0 20.4 25.5 39.6 103.9 99.1 341.6
07/05 06:00 18.4 58 9.12 10 20 28 1017.1 0 20.5 25.5 39.7 104.2 99.6 343.3
07/05 05:50 18.3 59 9.22 10.2 17 20 1017.1 0 20.7 25.7 40.2 105.4 101.0 348.1
07/05 05:40 18.4 60 9.44 10.5 19 20 1017 0 21.1 26.0 41.0 107.5 103.7 357.5
07/05 05:30 18.5 61 9.65 10.8 20 26 1016.7 0 21.6 26.3 41.7 109.6 106.2 366.4
07/05 05:20 18.3 63 9.85 11.1 19 22 1016.9 0 22.0 26.7 42.6 112.0 109.1 376.5
07/05 05:10 18.3 64 10.01 11.4 17 20 1016.8 0 22.4 27.0 43.2 113.7 111.2 383.7
07/05 05:00 18.4 65 10.22 11.7 17 22 1016.6 0 22.8 27.3 44.0 115.7 113.8 392.8
07/05 04:50 18.5 65 10.28 11.8 19 20 1016.6 0 22.9 27.3 44.2 116.2 114.4 395.1
07/05 04:40 18.7 64 10.25 11.8 20 22 1016.6 0 22.8 27.2 44.0 115.6 113.7 392.7
07/05 04:30 19 62 10.1 11.6 19 26 1016.5 0 22.5 26.9 43.2 113.6 111.3 384.3
07/05 04:20 19.2 62 10.22 11.7 19 22 1016.6 0 22.8 27.0 43.6 114.6 112.6 388.8
07/05 04:10 19.3 63 10.45 12.1 20 26 1016.5 0 23.2 27.4 44.4 116.8 115.4 398.8
07/05 04:00 19.3 65 10.78 12.6 17 20 1016.5 0 23.9 27.9 45.8 120.4 119.8 414.0
07/05 03:50 19.5 64 10.74 12.5 15 19 1016.5 0 23.8 27.8 45.5 119.6 119.0 411.1
07/05 03:40 19.7 63 10.7 12.5 20 26 1016.4 0 23.7 27.6 45.2 118.9 118.1 408.2
07/05 03:30 19.6 65 10.97 12.8 19 22 1016.3 0 24.3 28.1 46.3 121.9 121.8 421.1
07/05 03:20 19.6 66 11.14 13.1 17 19 1016.3 0 24.7 28.4 47.0 123.8 124.1 429.0
07/05 03:10 19.8 66 11.27 13.3 19 22 1016.4 0 24.9 28.5 47.4 124.9 125.5 434.0
07/05 03:00 19.9 65 11.17 13.1 15 20 1016.2 0 24.7 28.3 47.0 123.6 124.0 428.7
07/05 02:50 20.2 63 11.01 12.9 15 19 1016.5 0 24.4 28.0 46.2 121.4 121.4 419.8
07/05 02:40 20.4 63 11.14 13.1 15 17 1016.5 0 24.6 28.1 46.6 122.5 122.8 424.7
07/05 02:30 20.4 63 11.14 13.1 17 24 1016.5 0 24.6 28.1 46.6 122.5 122.8 424.7
07/05 02:20 20.2 64 11.19 13.2 15 17 1016.6 0 24.7 28.3 46.9 123.4 123.8 428.2
07/05 02:10 20.2 64 11.19 13.2 15 17 1016.5 0 24.7 28.3 46.9 123.4 123.8 428.1
07/05 02:00 20.3 64 11.25 13.3 15 17 1016.4 0 24.9 28.3 47.1 123.9 124.4 430.3
07/05 01:50 20.6 63 11.27 13.3 13 15 1016.6 0 24.9 28.3 47.0 123.6 124.2 429.7
07/05 01:40 20.9 61 11.11 13.1 19 22 1016.5 0 24.5 27.9 46.1 121.4 121.6 420.7
07/05 01:30 21 61 11.17 13.2 17 26 1016.4 0 24.7 28.0 46.3 121.9 122.3 422.9
07/05 01:20 21 62 11.36 13.4 19 24 1016.4 0 25.1 28.3 47.1 123.9 124.8 431.6
07/05 01:10 21 62 11.36 13.4 19 22 1016.3 0 25.1 28.3 47.1 123.9 124.7 431.5
07/05 01:00 20.9 63 11.47 13.6 17 24 1016.3 0 25.3 28.5 47.6 125.3 126.4 437.2
07/05 00:50 20.9 62 11.29 13.4 15 19 1016.4 0 24.9 28.2 46.9 123.3 124.0 428.9
07/05 00:40 21.1 61 11.24 13.3 17 20 1016.5 0 24.8 28.1 46.5 122.5 123.0 425.6
07/05 00:30 21.2 62 11.49 13.6 17 22 1016.5 0 25.3 28.4 47.5 125.0 126.2 436.5
07/05 00:20 21.4 62 11.62 13.8 17 19 1016.6 0 25.6 28.6 47.9 126.1 127.6 441.4
07/05 00:10 21.8 62 11.89 14.2 17 19 1016.7 0 26.1 28.9 48.7 128.4 130.5 451.6
07/05 00:00 22.1 61 11.91 14.2 19 24 1016.6 0 26.2 28.8 48.6 128.1 130.2 450.8
06/05 23:50 22.3 61 12.04 14.4 15 17 1016.8 0 26.4 29.0 49.0 129.2 131.6 455.7
06/05 23:40 22.3 62 12.24 14.7 22 28 1016.8 0 26.8 29.3 49.9 131.3 134.3 465.0

Last Refresh: 07-May-2026 15:45:55

Bureau of Meteorology